Time;durP1;ratioP1;P1;durP2;ratioP2;P2;SDS_P1;SDS_P2;PMS_P1;PMS_P2;Temp;Humidity;BMP_temperature;BMP_pressure;BME280_temperature;BME280_humidity;BME280_pressure;Samples;Min_cycle;Max_cycle;Signal;HPM_P1;HPM_P2
2024/01/28 00:02:21;;;;;;;9.15;8.75;;;;;;;;;;5033740;28;20391;-64
2024/01/28 00:04:46;;;;;;;10.00;9.50;;;;;;;;;;5028174;28;20017;-64
2024/01/28 00:07:11;;;;;;;10.10;9.60;;;;;;;;;;5025795;28;20061;-64
2024/01/28 00:09:37;;;;;;;9.40;9.00;;;;;;;;;;5028002;28;20025;-65
2024/01/28 00:12:02;;;;;;;9.50;9.10;;;;;;;;;;5027156;28;20029;-64
2024/01/28 00:14:28;;;;;;;9.75;9.30;;;;;;;;;;5031097;28;20488;-64
2024/01/28 00:16:53;;;;;;;10.00;9.50;;;;;;;;;;5030150;28;20036;-65
2024/01/28 00:19:18;;;;;;;9.70;9.20;;;;;;;;;;5024063;28;20510;-65
2024/01/28 00:21:44;;;;;;;9.23;8.82;;;;;;;;;;5024431;28;20033;-65
2024/01/28 00:24:10;;;;;;;9.48;9.07;;;;;;;;;;5025259;28;20037;-64
2024/01/28 00:26:41;;;;;;;9.50;9.10;;;;;;;;;;5026360;28;20017;-64
2024/01/28 00:29:07;;;;;;;9.60;9.20;;;;;;;;;;5032036;28;20017;-64
2024/01/28 00:31:32;;;;;;;9.95;9.45;;;;;;;;;;5029922;28;20071;-64
2024/01/28 00:33:58;;;;;;;9.10;8.70;;;;;;;;;;5037692;28;20029;-64
2024/01/28 00:36:23;;;;;;;9.45;9.05;;;;;;;;;;5019210;28;20022;-64
2024/01/28 00:38:49;;;;;;;9.70;9.30;;;;;;;;;;5029316;28;20032;-64
2024/01/28 00:41:21;;;;;;;9.52;9.13;;;;;;;;;;5026955;28;20025;-64
2024/01/28 00:43:46;;;;;;;10.20;9.70;;;;;;;;;;5027216;28;20143;-63
2024/01/28 00:46:12;;;;;;;9.63;9.23;;;;;;;;;;5032228;28;20551;-65
2024/01/28 00:48:37;;;;;;;9.48;9.07;;;;;;;;;;5032271;28;20029;-65
2024/01/28 00:51:03;;;;;;;10.27;9.77;;;;;;;;;;5027598;28;20503;-65
2024/01/28 00:53:28;;;;;;;9.45;9.05;;;;;;;;;;5025349;28;20100;-66
2024/01/28 00:55:53;;;;;;;9.80;9.32;;;;;;;;;;5033737;28;20036;-66
2024/01/28 00:58:19;;;;;;;9.70;9.30;;;;;;;;;;5027971;28;20018;-66
2024/01/28 01:00:44;;;;;;;9.80;9.30;;;;;;;;;;5039837;28;20036;-65
2024/01/28 01:03:10;;;;;;;9.10;8.70;;;;;;;;;;5027360;28;20022;-65
2024/01/28 01:05:35;;;;;;;9.50;9.10;;;;;;;;;;5029345;28;20018;-65
2024/01/28 01:08:00;;;;;;;9.50;9.10;;;;;;;;;;5034950;28;20026;-65
2024/01/28 01:10:26;;;;;;;9.80;9.30;;;;;;;;;;5027152;28;20049;-65
2024/01/28 01:12:52;;;;;;;9.10;8.70;;;;;;;;;;5038318;28;20149;-65
2024/01/28 01:15:18;;;;;;;9.35;8.95;;;;;;;;;;5030346;28;20495;-66
2024/01/28 01:17:44;;;;;;;9.68;9.25;;;;;;;;;;5023255;28;20565;-66
2024/01/28 01:20:10;;;;;;;9.80;9.30;;;;;;;;;;5033525;28;20026;-65
2024/01/28 01:22:35;;;;;;;9.98;9.48;;;;;;;;;;5033399;28;20043;-65
2024/01/28 01:25:01;;;;;;;9.02;8.63;;;;;;;;;;5026867;28;20480;-65
2024/01/28 01:27:26;;;;;;;9.43;9.02;;;;;;;;;;5034225;28;20020;-65
2024/01/28 01:29:51;;;;;;;9.38;8.98;;;;;;;;;;5030022;28;20030;-65
2024/01/28 01:32:17;;;;;;;10.00;9.50;;;;;;;;;;5030571;28;20097;-65
2024/01/28 01:34:42;;;;;;;9.63;9.23;;;;;;;;;;5029655;28;20053;-65
2024/01/28 01:37:08;;;;;;;9.88;9.38;;;;;;;;;;5029963;28;20490;-66
2024/01/28 01:39:33;;;;;;;9.52;9.13;;;;;;;;;;5032684;28;20068;-65
2024/01/28 01:41:59;;;;;;;9.40;9.00;;;;;;;;;;5031191;28;20021;-65
2024/01/28 01:44:24;;;;;;;9.70;9.30;;;;;;;;;;5029449;28;20041;-66
2024/01/28 01:46:50;;;;;;;10.40;9.90;;;;;;;;;;5027266;28;20021;-65
2024/01/28 01:49:15;;;;;;;9.20;8.80;;;;;;;;;;5025964;28;20020;-65
2024/01/28 01:51:41;;;;;;;10.23;9.73;;;;;;;;;;5023443;28;20017;-65
2024/01/28 01:54:07;;;;;;;9.00;8.60;;;;;;;;;;5043126;28;20624;-65
2024/01/28 01:56:34;;;;;;;9.75;9.25;;;;;;;;;;5033034;28;20028;-65
2024/01/28 01:59:00;;;;;;;9.93;9.43;;;;;;;;;;5032489;28;20022;-65
2024/01/28 02:01:27;;;;;;;9.50;9.10;;;;;;;;;;5037462;28;20025;-66
2024/01/28 02:03:54;;;;;;;9.27;8.88;;;;;;;;;;5026111;28;20924;-65
2024/01/28 02:06:19;;;;;;;9.20;8.80;;;;;;;;;;5031836;28;20028;-65
2024/01/28 02:08:45;;;;;;;9.52;9.13;;;;;;;;;;5027748;28;20030;-66
2024/01/28 02:11:10;;;;;;;10.30;9.80;;;;;;;;;;5032516;28;20408;-65
2024/01/28 02:13:37;;;;;;;9.63;9.23;;;;;;;;;;5032087;28;20056;-66
2024/01/28 02:16:02;;;;;;;9.55;9.15;;;;;;;;;;5032607;28;20025;-65
2024/01/28 02:18:29;;;;;;;9.32;8.93;;;;;;;;;;5030128;28;20099;-66
2024/01/28 02:20:54;;;;;;;9.50;9.10;;;;;;;;;;5032368;28;20022;-65
2024/01/28 02:23:21;;;;;;;9.68;9.23;;;;;;;;;;5029132;28;20491;-65
2024/01/28 02:25:46;;;;;;;10.30;9.80;;;;;;;;;;5027229;28;20075;-65
2024/01/28 02:28:12;;;;;;;9.35;8.95;;;;;;;;;;5031217;28;20025;-66
2024/01/28 02:30:37;;;;;;;10.13;9.63;;;;;;;;;;5032557;28;20104;-65
2024/01/28 02:33:02;;;;;;;9.63;9.23;;;;;;;;;;5034474;28;20056;-66
2024/01/28 02:35:28;;;;;;;10.10;9.60;;;;;;;;;;5029601;28;20105;-65
2024/01/28 02:37:53;;;;;;;9.88;9.38;;;;;;;;;;5030301;28;20030;-66
2024/01/28 02:40:19;;;;;;;9.68;9.27;;;;;;;;;;5030834;28;20033;-65
2024/01/28 02:42:44;;;;;;;9.20;8.80;;;;;;;;;;5029793;28;20021;-65
2024/01/28 02:45:10;;;;;;;9.50;9.10;;;;;;;;;;5027823;28;20026;-66
2024/01/28 02:47:35;;;;;;;9.65;9.23;;;;;;;;;;5030906;28;20107;-66
2024/01/28 02:50:01;;;;;;;9.93;9.43;;;;;;;;;;5027408;28;20028;-65
2024/01/28 02:52:27;;;;;;;9.25;8.85;;;;;;;;;;5031025;28;20045;-66
2024/01/28 02:54:52;;;;;;;9.60;9.20;;;;;;;;;;5028126;28;20034;-66
2024/01/28 02:57:17;;;;;;;9.40;9.00;;;;;;;;;;5028059;28;20021;-66
2024/01/28 02:59:43;;;;;;;9.90;9.40;;;;;;;;;;5027252;28;20030;-66
2024/01/28 03:02:08;;;;;;;10.10;9.60;;;;;;;;;;5030205;28;20036;-66
2024/01/28 03:04:37;;;;;;;9.27;8.88;;;;;;;;;;5022439;28;20071;-66
2024/01/28 03:07:02;;;;;;;9.25;8.85;;;;;;;;;;5033269;28;20014;-65
2024/01/28 03:09:28;;;;;;;9.65;9.25;;;;;;;;;;5029353;28;20039;-66
2024/01/28 03:11:53;;;;;;;9.60;9.20;;;;;;;;;;5031879;28;20017;-65
2024/01/28 03:14:19;;;;;;;9.77;9.30;;;;;;;;;;5025228;28;20036;-66
2024/01/28 03:16:46;;;;;;;9.40;9.00;;;;;;;;;;5026897;28;20018;-65
2024/01/28 03:19:11;;;;;;;10.00;9.50;;;;;;;;;;5029376;28;20026;-65
2024/01/28 03:21:37;;;;;;;9.10;8.70;;;;;;;;;;5030348;28;20552;-65
2024/01/28 03:24:03;;;;;;;9.57;9.18;;;;;;;;;;5028624;28;20025;-65
2024/01/28 03:26:28;;;;;;;9.45;9.05;;;;;;;;;;5029985;28;20495;-65
2024/01/28 03:28:54;;;;;;;9.90;9.40;;;;;;;;;;5028306;28;20025;-65
2024/01/28 03:31:19;;;;;;;9.23;8.82;;;;;;;;;;5026323;28;20025;-66
2024/01/28 03:33:46;;;;;;;9.30;8.90;;;;;;;;;;5026978;28;20029;-65
2024/01/28 03:36:11;;;;;;;9.32;8.93;;;;;;;;;;5022038;28;20021;-65
2024/01/28 03:38:38;;;;;;;9.68;9.27;;;;;;;;;;5028591;28;20022;-65
2024/01/28 03:41:03;;;;;;;9.80;9.30;;;;;;;;;;5030998;28;20102;-65
2024/01/28 03:43:28;;;;;;;9.50;9.10;;;;;;;;;;5028155;28;20165;-64
2024/01/28 03:45:54;;;;;;;10.02;9.52;;;;;;;;;;5028232;28;20030;-66
2024/01/28 03:48:19;;;;;;;9.20;8.80;;;;;;;;;;5028041;28;20029;-66
2024/01/28 03:50:44;;;;;;;10.18;9.68;;;;;;;;;;5022112;28;20021;-65
2024/01/28 03:53:10;;;;;;;10.07;9.57;;;;;;;;;;5025739;28;20543;-66
2024/01/28 03:55:35;;;;;;;9.60;9.20;;;;;;;;;;5031055;28;20104;-66
2024/01/28 03:58:00;;;;;;;9.27;8.88;;;;;;;;;;5027162;28;20079;-66
2024/01/28 04:00:28;;;;;;;9.50;9.10;;;;;;;;;;5027286;28;20036;-65
2024/01/28 04:02:54;;;;;;;10.10;9.60;;;;;;;;;;5031124;28;20032;-66
2024/01/28 04:05:20;;;;;;;11.00;10.40;;;;;;;;;;5028306;28;20449;-66
2024/01/28 04:07:45;;;;;;;9.35;8.95;;;;;;;;;;5019530;28;20017;-66
2024/01/28 04:10:14;;;;;;;9.57;9.18;;;;;;;;;;5026356;28;20021;-66
2024/01/28 04:12:39;;;;;;;9.40;9.00;;;;;;;;;;5028931;28;20025;-66
2024/01/28 04:15:05;;;;;;;10.10;9.60;;;;;;;;;;5030782;28;20032;-66
2024/01/28 04:17:30;;;;;;;10.18;9.68;;;;;;;;;;5025027;28;20029;-66
2024/01/28 04:19:56;;;;;;;9.80;9.32;;;;;;;;;;5028766;28;20037;-66
2024/01/28 04:22:21;;;;;;;9.50;9.10;;;;;;;;;;5031727;28;20048;-66
2024/01/28 04:24:46;;;;;;;9.43;9.02;;;;;;;;;;5025173;28;20028;-66
2024/01/28 04:27:12;;;;;;;9.68;9.27;;;;;;;;;;5028870;28;20083;-65
2024/01/28 04:29:37;;;;;;;10.10;9.60;;;;;;;;;;5026024;28;20026;-65
2024/01/28 04:32:04;;;;;;;10.02;9.52;;;;;;;;;;5025895;28;20048;-65
2024/01/28 04:34:29;;;;;;;9.63;9.23;;;;;;;;;;5031848;28;20025;-65
2024/01/28 04:36:54;;;;;;;10.00;9.50;;;;;;;;;;5030509;28;20036;-64
2024/01/28 04:39:20;;;;;;;9.63;9.23;;;;;;;;;;5032122;28;20041;-64
2024/01/28 04:41:46;;;;;;;9.98;9.48;;;;;;;;;;5028075;28;20053;-64
2024/01/28 04:44:11;;;;;;;9.80;9.30;;;;;;;;;;5027788;28;20052;-65
2024/01/28 04:46:37;;;;;;;9.30;8.90;;;;;;;;;;5019919;28;20550;-64
2024/01/28 04:49:03;;;;;;;9.63;9.20;;;;;;;;;;5028968;28;20033;-64
2024/01/28 04:51:30;;;;;;;9.38;8.98;;;;;;;;;;5028178;28;20031;-65
2024/01/28 04:53:55;;;;;;;10.30;9.80;;;;;;;;;;5034693;28;20179;-64
2024/01/28 04:56:21;;;;;;;9.80;9.30;;;;;;;;;;5029639;28;20113;-65
2024/01/28 04:58:47;;;;;;;9.52;9.13;;;;;;;;;;5033706;28;20506;-64
2024/01/28 05:01:13;;;;;;;9.95;9.45;;;;;;;;;;5032739;28;20017;-65
2024/01/28 05:03:38;;;;;;;9.60;9.18;;;;;;;;;;5032826;28;20124;-64
2024/01/28 05:06:04;;;;;;;9.82;9.32;;;;;;;;;;5027620;28;20025;-66
2024/01/28 05:08:30;;;;;;;9.73;9.30;;;;;;;;;;5029842;28;20013;-65
2024/01/28 05:10:56;;;;;;;9.48;9.07;;;;;;;;;;5039457;28;20017;-64
2024/01/28 05:13:21;;;;;;;9.18;8.77;;;;;;;;;;5047897;28;20025;-64
2024/01/28 05:15:47;;;;;;;9.52;9.13;;;;;;;;;;5038396;28;20487;-64
2024/01/28 05:18:12;;;;;;;9.27;8.88;;;;;;;;;;5039075;28;20018;-66
2024/01/28 05:20:38;;;;;;;10.10;9.60;;;;;;;;;;5027676;28;20038;-65
2024/01/28 05:23:03;;;;;;;9.20;8.80;;;;;;;;;;5034091;28;20033;-65
2024/01/28 05:25:29;;;;;;;9.55;9.15;;;;;;;;;;5034023;28;20079;-65
2024/01/28 05:27:54;;;;;;;9.50;9.10;;;;;;;;;;5043653;28;20025;-65
2024/01/28 05:30:19;;;;;;;10.40;9.90;;;;;;;;;;5034033;28;20108;-64
2024/01/28 05:32:45;;;;;;;9.25;8.85;;;;;;;;;;5040205;28;20491;-65
2024/01/28 05:35:10;;;;;;;9.57;9.18;;;;;;;;;;5024935;28;20462;-64
2024/01/28 05:37:37;;;;;;;9.40;9.00;;;;;;;;;;5028771;28;20052;-64
2024/01/28 05:40:03;;;;;;;9.65;9.25;;;;;;;;;;5029183;28;20111;-64
2024/01/28 05:42:28;;;;;;;9.18;8.77;;;;;;;;;;5028994;28;20022;-65
2024/01/28 05:44:53;;;;;;;9.60;9.20;;;;;;;;;;5030677;28;20101;-65
2024/01/28 05:47:19;;;;;;;9.60;9.20;;;;;;;;;;5034233;28;20021;-65
2024/01/28 05:49:44;;;;;;;9.40;9.00;;;;;;;;;;5028150;28;20573;-65
2024/01/28 05:52:09;;;;;;;9.35;8.95;;;;;;;;;;5032932;28;20045;-65
2024/01/28 05:54:37;;;;;;;9.50;9.10;;;;;;;;;;5035076;28;20067;-65
2024/01/28 05:57:03;;;;;;;10.10;9.60;;;;;;;;;;5026625;28;20037;-65
2024/01/28 05:59:28;;;;;;;9.65;9.23;;;;;;;;;;5028675;28;20030;-65
2024/01/28 06:01:53;;;;;;;10.07;9.57;;;;;;;;;;5022941;28;20021;-65
2024/01/28 06:04:19;;;;;;;9.48;9.07;;;;;;;;;;5031301;28;20112;-66
2024/01/28 06:06:44;;;;;;;9.60;9.20;;;;;;;;;;5029112;28;20017;-66
2024/01/28 06:09:10;;;;;;;9.40;9.00;;;;;;;;;;5031979;28;20426;-66
2024/01/28 06:11:36;;;;;;;10.10;9.60;;;;;;;;;;5031860;28;20096;-65
2024/01/28 06:14:01;;;;;;;9.52;9.13;;;;;;;;;;5030639;28;20116;-65
2024/01/28 06:16:27;;;;;;;9.20;8.80;;;;;;;;;;5033167;28;20067;-65
2024/01/28 06:18:52;;;;;;;9.82;9.32;;;;;;;;;;5047690;28;20060;-65
2024/01/28 06:21:18;;;;;;;10.00;9.50;;;;;;;;;;5033843;28;20025;-64
2024/01/28 06:23:44;;;;;;;10.00;9.50;;;;;;;;;;5034496;28;20518;-65
2024/01/28 06:26:09;;;;;;;9.13;8.73;;;;;;;;;;5035121;28;20059;-65
2024/01/28 06:28:35;;;;;;;9.13;8.73;;;;;;;;;;5031055;28;20029;-65
2024/01/28 06:31:00;;;;;;;10.30;9.80;;;;;;;;;;5022844;28;20037;-65
2024/01/28 06:33:26;;;;;;;9.52;9.13;;;;;;;;;;5028862;28;20403;-66
2024/01/28 06:35:51;;;;;;;9.88;9.38;;;;;;;;;;5023926;28;20192;-65
2024/01/28 06:38:18;;;;;;;9.60;9.18;;;;;;;;;;5034214;28;20033;-65
2024/01/28 06:40:44;;;;;;;9.20;8.80;;;;;;;;;;5032976;28;20017;-65
2024/01/28 06:43:09;;;;;;;9.98;9.48;;;;;;;;;;5034112;28;20051;-65
2024/01/28 06:45:34;;;;;;;9.75;9.27;;;;;;;;;;5027991;28;20017;-65
2024/01/28 06:48:00;;;;;;;9.65;9.18;;;;;;;;;;5034646;28;20108;-65
2024/01/28 06:50:25;;;;;;;10.00;9.50;;;;;;;;;;5034411;28;20049;-65
2024/01/28 06:52:50;;;;;;;9.82;9.38;;;;;;;;;;5032999;28;20044;-66
2024/01/28 06:55:17;;;;;;;9.30;8.90;;;;;;;;;;5029334;28;20436;-66
2024/01/28 06:57:42;;;;;;;9.60;9.20;;;;;;;;;;5032490;28;20021;-66
2024/01/28 07:00:10;;;;;;;10.15;9.65;;;;;;;;;;5029056;28;20394;-65
2024/01/28 07:02:37;;;;;;;10.15;9.65;;;;;;;;;;5031844;28;20064;-65
2024/01/28 07:05:02;;;;;;;9.90;9.40;;;;;;;;;;5027999;28;20026;-65
2024/01/28 07:07:27;;;;;;;9.30;8.90;;;;;;;;;;5021969;28;20831;-65
2024/01/28 07:09:53;;;;;;;9.40;9.00;;;;;;;;;;5031903;28;20035;-65
2024/01/28 07:12:18;;;;;;;10.55;10.05;;;;;;;;;;5027345;28;20429;-65
2024/01/28 07:14:44;;;;;;;10.25;9.75;;;;;;;;;;5031572;28;20479;-65
2024/01/28 07:17:09;;;;;;;9.85;9.35;;;;;;;;;;5033346;28;20104;-64
2024/01/28 07:19:35;;;;;;;9.43;9.02;;;;;;;;;;5035162;28;20032;-64
2024/01/28 07:22:01;;;;;;;9.80;9.35;;;;;;;;;;5033304;28;20026;-64
2024/01/28 07:24:26;;;;;;;10.85;10.30;;;;;;;;;;5025036;28;20030;-65
2024/01/28 07:26:51;;;;;;;10.35;9.85;;;;;;;;;;5030910;28;20017;-68
2024/01/28 07:29:17;;;;;;;10.88;10.35;;;;;;;;;;5023917;28;20112;-68
2024/01/28 07:31:42;;;;;;;9.50;9.10;;;;;;;;;;5029386;28;20024;-68
2024/01/28 07:34:08;;;;;;;10.10;9.60;;;;;;;;;;5026617;28;20037;-68
2024/01/28 07:36:33;;;;;;;10.27;9.77;;;;;;;;;;5025525;28;20032;-69
2024/01/28 07:38:59;;;;;;;10.40;9.90;;;;;;;;;;5029627;28;20491;-66
2024/01/28 07:41:25;;;;;;;10.38;9.88;;;;;;;;;;5020656;28;20032;-65
2024/01/28 07:43:51;;;;;;;10.15;9.65;;;;;;;;;;5022783;28;20033;-65
2024/01/28 07:46:16;;;;;;;9.73;9.30;;;;;;;;;;5025488;28;20026;-64
2024/01/28 07:48:42;;;;;;;9.75;9.35;;;;;;;;;;5031023;28;20018;-66
2024/01/28 07:51:08;;;;;;;10.43;9.93;;;;;;;;;;5027866;28;20022;-65
2024/01/28 07:53:34;;;;;;;10.52;10.02;;;;;;;;;;5027139;28;20124;-65
2024/01/28 07:56:00;;;;;;;9.75;9.32;;;;;;;;;;5026057;28;20017;-65
2024/01/28 07:58:25;;;;;;;9.82;9.38;;;;;;;;;;5025156;28;20033;-65
2024/01/28 08:00:51;;;;;;;10.43;9.93;;;;;;;;;;5022946;28;20048;-64
2024/01/28 08:03:16;;;;;;;10.68;10.18;;;;;;;;;;5023434;28;20033;-65
2024/01/28 08:05:41;;;;;;;10.10;9.60;;;;;;;;;;5024184;28;20044;-65
2024/01/28 08:08:07;;;;;;;10.63;10.13;;;;;;;;;;5018652;28;20053;-65
2024/01/28 08:10:33;;;;;;;10.60;10.10;;;;;;;;;;5021971;28;20022;-65
2024/01/28 08:12:58;;;;;;;10.32;9.82;;;;;;;;;;5040418;28;20021;-66
2024/01/28 08:15:23;;;;;;;10.50;10.00;;;;;;;;;;5025097;28;20104;-66
2024/01/28 08:17:50;;;;;;;10.45;9.95;;;;;;;;;;5025051;28;20048;-65
2024/01/28 08:20:19;;;;;;;10.20;9.70;;;;;;;;;;5026361;28;20025;-66
2024/01/28 08:22:44;;;;;;;10.23;9.73;;;;;;;;;;5024883;28;20021;-65
2024/01/28 08:25:12;;;;;;;10.25;9.75;;;;;;;;;;5025044;28;20546;-66
2024/01/28 08:27:38;;;;;;;10.20;9.70;;;;;;;;;;5018852;28;20234;-66
2024/01/28 08:30:04;;;;;;;10.52;10.02;;;;;;;;;;5021305;28;20467;-65
2024/01/28 08:32:30;;;;;;;10.32;9.82;;;;;;;;;;5018210;28;20021;-65
2024/01/28 08:34:55;;;;;;;9.95;9.52;;;;;;;;;;5025152;28;20029;-64
2024/01/28 08:37:22;;;;;;;10.57;10.07;;;;;;;;;;5024840;28;20385;-64
2024/01/28 08:39:47;;;;;;;10.23;9.73;;;;;;;;;;5021080;28;20049;-64
2024/01/28 08:42:13;;;;;;;10.40;9.90;;;;;;;;;;5021988;28;20049;-65
2024/01/28 08:44:39;;;;;;;10.48;9.98;;;;;;;;;;5023954;28;20018;-65
2024/01/28 08:47:05;;;;;;;10.30;9.80;;;;;;;;;;5020736;28;20044;-67
2024/01/28 08:49:30;;;;;;;11.00;10.50;;;;;;;;;;5031542;28;20026;-65
2024/01/28 08:51:56;;;;;;;10.57;10.07;;;;;;;;;;5021749;28;20606;-64
2024/01/28 08:54:21;;;;;;;10.60;10.10;;;;;;;;;;5021232;28;20103;-64
2024/01/28 08:56:48;;;;;;;10.43;9.93;;;;;;;;;;5021650;28;20056;-64
2024/01/28 08:59:13;;;;;;;10.10;9.60;;;;;;;;;;5023061;28;20079;-65
2024/01/28 09:01:39;;;;;;;10.30;9.80;;;;;;;;;;5025136;28;20096;-65
2024/01/28 09:04:05;;;;;;;10.20;9.70;;;;;;;;;;5024364;28;20476;-65
2024/01/28 09:06:31;;;;;;;10.68;10.18;;;;;;;;;;5022640;28;20108;-65
2024/01/28 09:08:56;;;;;;;10.93;10.43;;;;;;;;;;5026845;28;20017;-65
2024/01/28 09:11:21;;;;;;;12.93;12.23;;;;;;;;;;5022755;28;20021;-66
2024/01/28 09:13:47;;;;;;;11.10;10.60;;;;;;;;;;5024076;28;20569;-65
2024/01/28 09:16:12;;;;;;;10.40;9.90;;;;;;;;;;5027091;28;20415;-66
2024/01/28 09:18:42;;;;;;;10.25;9.75;;;;;;;;;;5022971;28;20229;-65
2024/01/28 09:21:08;;;;;;;10.30;9.80;;;;;;;;;;5023952;28;20045;-65
2024/01/28 09:23:33;;;;;;;10.25;9.75;;;;;;;;;;5023822;28;20069;-65
2024/01/28 09:25:58;;;;;;;10.25;9.75;;;;;;;;;;5027805;28;20017;-65
2024/01/28 09:28:24;;;;;;;10.45;9.95;;;;;;;;;;5040314;28;20452;-65
2024/01/28 09:30:50;;;;;;;10.98;10.48;;;;;;;;;;5025671;28;20125;-65
2024/01/28 09:33:16;;;;;;;10.77;10.27;;;;;;;;;;5022922;28;20048;-64
2024/01/28 09:35:43;;;;;;;10.75;10.25;;;;;;;;;;5024254;28;20025;-64
2024/01/28 09:38:09;;;;;;;10.35;9.85;;;;;;;;;;5024577;28;20021;-64
2024/01/28 09:40:34;;;;;;;10.30;9.80;;;;;;;;;;5024044;28;20028;-65
2024/01/28 09:43:13;;;;;;;10.80;10.30;;;;;;;;;;5033741;28;20049;-65
2024/01/28 09:45:39;;;;;;;10.88;10.38;;;;;;;;;;5029512;28;20059;-65
2024/01/28 09:48:04;;;;;;;10.48;9.98;;;;;;;;;;5032718;28;20136;-65
2024/01/28 09:50:30;;;;;;;10.50;10.00;;;;;;;;;;5034307;28;20040;-64
2024/01/28 09:52:55;;;;;;;10.60;10.10;;;;;;;;;;5032744;28;20511;-63
2024/01/28 09:55:20;;;;;;;10.27;9.77;;;;;;;;;;5026343;28;20020;-66
2024/01/28 09:57:46;;;;;;;10.45;9.95;;;;;;;;;;5030686;28;20037;-66
2024/01/28 10:00:12;;;;;;;11.02;10.50;;;;;;;;;;5027832;28;20029;-65
2024/01/28 10:02:41;;;;;;;10.35;9.85;;;;;;;;;;5030413;28;20036;-65
2024/01/28 10:05:10;;;;;;;10.73;10.23;;;;;;;;;;5024107;28;20018;-66
2024/01/28 10:07:47;;;;;;;10.63;10.13;;;;;;;;;;5021918;28;20018;-65
2024/01/28 10:10:13;;;;;;;9.88;9.48;;;;;;;;;;5026392;28;20064;-65
2024/01/28 10:12:39;;;;;;;10.13;9.63;;;;;;;;;;5031026;28;20028;-66
2024/01/28 10:15:12;;;;;;;10.00;9.60;;;;;;;;;;5030639;28;20021;-66
2024/01/28 10:17:37;;;;;;;11.32;10.73;;;;;;;;;;5031856;28;20029;-64
2024/01/28 10:20:07;;;;;;;10.90;10.40;;;;;;;;;;5027559;28;20113;-65
2024/01/28 10:22:32;;;;;;;9.95;9.52;;;;;;;;;;5024653;28;20052;-65
2024/01/28 10:24:57;;;;;;;10.02;9.60;;;;;;;;;;5029455;28;20025;-66
2024/01/28 10:27:23;;;;;;;10.45;9.95;;;;;;;;;;5028542;28;20028;-65
2024/01/28 10:29:48;;;;;;;10.77;10.27;;;;;;;;;;5028022;28;20503;-66
2024/01/28 10:32:13;;;;;;;10.40;9.90;;;;;;;;;;5028716;28;20087;-65
2024/01/28 10:34:39;;;;;;;10.63;10.13;;;;;;;;;;5024630;28;20049;-65
2024/01/28 10:37:06;;;;;;;10.32;9.82;;;;;;;;;;5024129;28;20021;-66
2024/01/28 10:39:34;;;;;;;11.02;10.50;;;;;;;;;;5022123;28;20017;-66
2024/01/28 10:42:02;;;;;;;10.88;10.38;;;;;;;;;;5024530;28;20029;-66
2024/01/28 10:44:28;;;;;;;11.00;10.48;;;;;;;;;;5024762;28;20500;-64
2024/01/28 10:46:56;;;;;;;11.07;10.55;;;;;;;;;;5026680;28;20021;-66
2024/01/28 10:49:26;;;;;;;10.98;10.48;;;;;;;;;;5022123;28;20038;-66
2024/01/28 10:51:54;;;;;;;10.40;9.90;;;;;;;;;;5023826;28;20136;-66
2024/01/28 10:54:20;;;;;;;10.98;10.48;;;;;;;;;;5026701;28;20129;-66
2024/01/28 10:56:46;;;;;;;11.10;10.55;;;;;;;;;;5020207;28;20101;-66
2024/01/28 10:59:12;;;;;;;10.45;9.95;;;;;;;;;;5025744;28;20029;-66
2024/01/28 11:01:38;;;;;;;10.30;9.80;;;;;;;;;;5047282;28;20025;-66
2024/01/28 11:04:04;;;;;;;10.30;9.80;;;;;;;;;;5029343;28;20032;-65
2024/01/28 11:06:29;;;;;;;11.27;10.68;;;;;;;;;;5033802;28;20062;-66
2024/01/28 11:08:58;;;;;;;11.15;10.63;;;;;;;;;;5031742;28;20020;-67
2024/01/28 11:11:23;;;;;;;10.30;9.80;;;;;;;;;;5033648;28;20102;-67
2024/01/28 11:13:49;;;;;;;11.48;10.88;;;;;;;;;;5027508;28;20512;-65
2024/01/28 11:16:16;;;;;;;10.90;10.40;;;;;;;;;;5030451;28;20133;-65
2024/01/28 11:18:52;;;;;;;11.18;10.65;;;;;;;;;;5022225;28;20026;-65
2024/01/28 11:21:19;;;;;;;10.77;10.27;;;;;;;;;;5028589;28;20499;-65
2024/01/28 11:23:47;;;;;;;10.75;10.25;;;;;;;;;;5030587;28;20032;-66
2024/01/28 11:26:16;;;;;;;10.90;10.40;;;;;;;;;;5030220;28;20518;-65
2024/01/28 11:28:48;;;;;;;11.82;11.23;;;;;;;;;;5032837;28;20044;-66
2024/01/28 11:31:28;;;;;;;11.13;10.57;;;;;;;;;;5024280;28;20104;-66
2024/01/28 11:33:53;;;;;;;10.57;10.07;;;;;;;;;;5014104;28;20118;-65
2024/01/28 11:36:25;;;;;;;10.48;9.98;;;;;;;;;;5018071;28;20128;-65
2024/01/28 11:38:54;;;;;;;10.70;10.20;;;;;;;;;;5020702;28;20030;-65
2024/01/28 11:41:21;;;;;;;11.40;10.80;;;;;;;;;;5025948;28;20026;-67
2024/01/28 11:43:46;;;;;;;10.23;9.73;;;;;;;;;;5023593;28;20024;-67
2024/01/28 11:46:12;;;;;;;10.35;9.85;;;;;;;;;;5028521;28;20025;-65
2024/01/28 11:48:38;;;;;;;10.30;9.80;;;;;;;;;;5018960;28;20045;-66
2024/01/28 11:51:03;;;;;;;10.80;10.30;;;;;;;;;;5024306;28;20507;-65
2024/01/28 11:53:29;;;;;;;10.73;10.23;;;;;;;;;;5029211;28;20049;-65
2024/01/28 11:56:04;;;;;;;10.50;10.00;;;;;;;;;;5029982;28;20029;-65
2024/01/28 11:58:30;;;;;;;10.32;9.82;;;;;;;;;;5030377;28;20025;-66
2024/01/28 12:00:56;;;;;;;10.65;10.15;;;;;;;;;;5028089;28;20473;-67
2024/01/28 12:03:21;;;;;;;10.82;10.32;;;;;;;;;;5034484;28;20480;-66
2024/01/28 12:05:46;;;;;;;10.70;10.20;;;;;;;;;;5028963;28;20014;-65
2024/01/28 12:08:12;;;;;;;10.43;9.93;;;;;;;;;;5028277;28;20017;-65
2024/01/28 12:10:37;;;;;;;10.70;10.20;;;;;;;;;;5032017;28;20029;-66
2024/01/28 12:13:05;;;;;;;10.82;10.32;;;;;;;;;;5033328;28;20032;-66
2024/01/28 12:15:30;;;;;;;11.32;10.73;;;;;;;;;;5029511;28;20022;-65
2024/01/28 12:17:56;;;;;;;10.98;10.48;;;;;;;;;;5026211;28;20479;-66
2024/01/28 12:20:22;;;;;;;10.48;9.98;;;;;;;;;;5031507;28;20029;-67
2024/01/28 12:22:47;;;;;;;10.60;10.10;;;;;;;;;;5040902;28;20029;-66
2024/01/28 12:25:18;;;;;;;10.43;9.93;;;;;;;;;;5025616;28;20098;-67
2024/01/28 12:27:43;;;;;;;10.35;9.85;;;;;;;;;;5025503;28;20074;-65
2024/01/28 12:30:09;;;;;;;10.85;10.35;;;;;;;;;;5031133;28;20022;-65
2024/01/28 12:32:37;;;;;;;10.68;10.18;;;;;;;;;;5029059;28;20025;-66
2024/01/28 12:35:07;;;;;;;10.30;9.80;;;;;;;;;;5029006;28;20057;-66
2024/01/28 12:37:32;;;;;;;10.10;9.60;;;;;;;;;;5031429;28;20014;-66
2024/01/28 12:39:59;;;;;;;10.63;10.13;;;;;;;;;;5026306;28;20033;-66
2024/01/28 12:42:24;;;;;;;11.43;10.82;;;;;;;;;;5030747;28;20125;-65
2024/01/28 12:44:50;;;;;;;10.07;9.57;;;;;;;;;;5025959;28;20112;-66
2024/01/28 12:47:15;;;;;;;10.30;9.80;;;;;;;;;;5029919;28;20032;-65
2024/01/28 12:49:40;;;;;;;10.02;9.52;;;;;;;;;;5022887;28;20101;-65
2024/01/28 12:52:06;;;;;;;10.65;10.15;;;;;;;;;;5046253;28;20053;-66
2024/01/28 12:54:31;;;;;;;10.50;10.00;;;;;;;;;;5031019;28;20029;-66
2024/01/28 12:56:57;;;;;;;11.65;11.05;;;;;;;;;;5034736;28;20020;-65
2024/01/28 12:59:22;;;;;;;10.30;9.80;;;;;;;;;;5029342;28;20520;-66
2024/01/28 13:01:48;;;;;;;10.40;9.90;;;;;;;;;;5028749;28;20030;-65
2024/01/28 13:04:13;;;;;;;10.80;10.30;;;;;;;;;;5031132;28;20022;-66
2024/01/28 13:06:39;;;;;;;10.88;10.38;;;;;;;;;;5030402;28;20030;-65
2024/01/28 13:09:04;;;;;;;10.80;10.30;;;;;;;;;;5030793;28;20419;-65
2024/01/28 13:11:29;;;;;;;10.73;10.23;;;;;;;;;;5024740;28;20025;-66
2024/01/28 13:13:55;;;;;;;10.48;9.98;;;;;;;;;;5029951;28;20029;-65
2024/01/28 13:16:21;;;;;;;11.00;10.50;;;;;;;;;;5028112;28;20088;-66
2024/01/28 13:18:46;;;;;;;10.35;9.85;;;;;;;;;;5022278;28;20024;-65
2024/01/28 13:21:12;;;;;;;10.45;9.95;;;;;;;;;;5030972;28;20033;-65
2024/01/28 13:23:38;;;;;;;9.75;9.35;;;;;;;;;;5031992;28;20033;-65
2024/01/28 13:26:03;;;;;;;10.45;9.95;;;;;;;;;;5030307;28;20104;-65
2024/01/28 13:28:29;;;;;;;10.27;9.77;;;;;;;;;;5032789;28;20468;-65
2024/01/28 13:30:54;;;;;;;10.13;9.63;;;;;;;;;;5030925;28;20021;-63
2024/01/28 13:33:19;;;;;;;10.52;10.02;;;;;;;;;;5033972;28;20488;-65
2024/01/28 13:35:45;;;;;;;10.10;9.60;;;;;;;;;;5030251;28;20448;-66
2024/01/28 13:38:10;;;;;;;10.13;9.63;;;;;;;;;;5033290;28;20032;-64
2024/01/28 13:40:35;;;;;;;10.30;9.80;;;;;;;;;;5033997;28;20031;-65
2024/01/28 13:43:01;;;;;;;9.85;9.43;;;;;;;;;;5033363;28;20091;-65
2024/01/28 13:45:26;;;;;;;10.35;9.85;;;;;;;;;;5029964;28;20061;-65
2024/01/28 13:47:52;;;;;;;10.30;9.80;;;;;;;;;;5036302;28;20044;-66
2024/01/28 13:50:17;;;;;;;10.10;9.60;;;;;;;;;;5037445;28;20021;-66
2024/01/28 13:52:42;;;;;;;9.95;9.55;;;;;;;;;;5032538;28;20132;-65
2024/01/28 13:55:09;;;;;;;10.73;10.23;;;;;;;;;;5029582;28;20513;-66
2024/01/28 13:57:35;;;;;;;10.10;9.60;;;;;;;;;;5028322;28;20076;-66
2024/01/28 14:00:00;;;;;;;9.98;9.50;;;;;;;;;;5034086;28;20411;-65
2024/01/28 14:02:26;;;;;;;9.98;9.50;;;;;;;;;;5038047;28;20033;-65
2024/01/28 14:04:51;;;;;;;10.05;9.55;;;;;;;;;;5033925;28;20014;-65
2024/01/28 14:07:17;;;;;;;10.00;9.50;;;;;;;;;;5030606;28;20024;-66
2024/01/28 14:09:42;;;;;;;10.43;9.93;;;;;;;;;;5026958;28;20048;-65
2024/01/28 14:12:09;;;;;;;11.65;11.05;;;;;;;;;;5045332;28;20071;-66
2024/01/28 14:14:34;;;;;;;10.10;9.60;;;;;;;;;;5032506;28;20049;-66
2024/01/28 14:17:00;;;;;;;10.40;9.90;;;;;;;;;;5029813;28;20052;-66
2024/01/28 14:19:25;;;;;;;10.00;9.52;;;;;;;;;;5033955;28;20472;-66
2024/01/28 14:21:50;;;;;;;10.45;9.95;;;;;;;;;;5020904;28;20064;-66
2024/01/28 14:24:16;;;;;;;10.32;9.82;;;;;;;;;;5034583;28;20021;-66
2024/01/28 14:26:42;;;;;;;9.73;9.32;;;;;;;;;;5031718;28;20167;-67